Buena Ventura Lakes, Florida
Current Conditions -  °F | °C
As of 9:45 PM on Wednesday 22 Oct 2014 (Local Time) from KISM Reporting Station
Clear Clear  
Wind Chill: 72°   Ceiling: Unl
Heat Index: 72°   Visibility: 10mi
Dew Point: 63°   Wind: 8mph
Humidity: 73%   Direction: 40°NE
Pressure: 30.01"   Gusts: NA
Location:  28.34°N, 81.35°W
Report Text: KISM 230145Z 04007KT 10SM SKC 22/17 A3001 RMK LAST
Loading
Personal Weather Stations






























Interactive Weather Map
Tropical Storm Tracking
New forecast layout! Learn more

10-Day Weather Forecast

Advertisements
Track Severe Weather on mobile